createdAt,value
2022-10-22T00:01:39.336Z,19.15
2022-10-22T00:04:09.281Z,18.63
2022-10-22T00:06:35.770Z,18.98
2022-10-22T00:09:02.406Z,19.67
2022-10-22T00:11:28.888Z,17.90
2022-10-22T00:13:55.797Z,17.42
2022-10-22T00:16:22.263Z,18.73
2022-10-22T00:18:48.724Z,18.85
2022-10-22T00:21:18.012Z,19.55
2022-10-22T00:23:44.446Z,19.42
2022-10-22T00:26:11.529Z,18.67
2022-10-22T00:28:38.072Z,18.40
2022-10-22T00:31:04.610Z,18.40
2022-10-22T00:33:31.209Z,17.38
2022-10-22T00:35:58.044Z,17.33
2022-10-22T00:38:24.541Z,18.38
2022-10-22T00:40:51.055Z,17.98
2022-10-22T00:43:18.914Z,18.95
2022-10-22T00:45:45.516Z,18.30
2022-10-22T00:48:13.369Z,16.95
2022-10-22T00:50:42.618Z,16.90
2022-10-22T00:53:12.737Z,14.63
2022-10-22T00:55:39.419Z,16.25
2022-10-22T00:58:06.154Z,16.65
2022-10-22T01:00:32.941Z,17.73
2022-10-22T01:02:59.555Z,15.48
2022-10-22T01:05:29.986Z,17.15
2022-10-22T01:07:56.976Z,15.90
2022-10-22T01:10:42.345Z,18.23
2022-10-22T01:13:11.032Z,16.85
2022-10-22T01:15:45.659Z,16.00
2022-10-22T01:18:26.103Z,16.75
2022-10-22T01:21:00.834Z,16.30
2022-10-22T01:23:45.644Z,15.90
2022-10-22T01:26:34.043Z,17.15
2022-10-22T01:29:02.448Z,17.17
2022-10-22T01:31:44.606Z,16.00
2022-10-22T01:34:12.553Z,15.15
2022-10-22T01:36:39.585Z,16.52
2022-10-22T01:39:07.199Z,17.50
2022-10-22T01:41:34.516Z,17.70
2022-10-22T01:44:00.941Z,16.40
2022-10-22T01:46:28.042Z,17.80
2022-10-22T01:49:12.081Z,15.90
2022-10-22T01:54:10.952Z,15.77
2022-10-22T01:56:55.914Z,15.73
2022-10-22T01:59:28.035Z,16.83
2022-10-22T02:01:59.806Z,16.42
2022-10-22T02:04:35.790Z,16.10
2022-10-22T02:07:04.880Z,16.65
2022-10-22T02:09:32.163Z,14.35
2022-10-22T02:11:59.967Z,16.45
2022-10-22T02:14:28.120Z,16.15
2022-10-22T02:16:54.962Z,16.05
2022-10-22T02:19:30.805Z,17.00
2022-10-22T02:21:57.292Z,16.30
2022-10-22T02:24:24.245Z,16.10
2022-10-22T02:26:55.183Z,15.93
2022-10-22T02:29:30.152Z,16.17
2022-10-22T02:31:58.343Z,17.95
2022-10-22T02:34:28.419Z,16.55
2022-10-22T02:36:55.412Z,15.80
2022-10-22T02:39:22.225Z,17.02
2022-10-22T02:41:51.798Z,16.95
2022-10-22T02:44:20.937Z,17.27
2022-10-22T02:46:47.753Z,16.52
2022-10-22T02:49:14.192Z,19.52
2022-10-22T02:51:40.639Z,16.27
2022-10-22T02:54:07.187Z,18.77
2022-10-22T02:56:33.685Z,17.52
2022-10-22T02:59:00.106Z,16.77
2022-10-22T03:01:27.038Z,16.20
2022-10-22T03:03:53.515Z,17.02
2022-10-22T03:06:20.126Z,16.55
2022-10-22T03:08:46.602Z,16.85
2022-10-22T03:11:13.089Z,16.88
2022-10-22T03:13:39.516Z,17.13
2022-10-22T03:16:06.153Z,17.15
2022-10-22T03:18:32.591Z,17.67
2022-10-22T03:21:06.421Z,17.27
2022-10-22T03:28:47.956Z,18.17
2022-10-22T03:31:15.063Z,17.25
2022-10-22T03:33:41.484Z,16.75
2022-10-22T03:36:08.629Z,17.70
2022-10-22T03:38:38.910Z,18.65
2022-10-22T03:41:08.555Z,17.02
2022-10-22T03:43:35.853Z,15.75
2022-10-22T03:46:02.380Z,18.50
2022-10-22T03:48:28.845Z,17.08
2022-10-22T03:50:55.307Z,17.88
2022-10-22T03:53:21.865Z,17.60
2022-10-22T03:55:48.348Z,18.52
2022-10-22T03:58:20.916Z,16.98
2022-10-22T04:00:47.325Z,18.52
2022-10-22T04:03:13.770Z,18.88
2022-10-22T04:05:40.214Z,18.63
2022-10-22T04:08:06.610Z,17.15
2022-10-22T04:10:33.043Z,16.80
2022-10-22T04:12:59.490Z,16.75
2022-10-22T04:15:28.292Z,17.90
2022-10-22T04:17:55.059Z,19.23
2022-10-22T04:20:21.573Z,18.30
2022-10-22T04:22:48.034Z,17.98
2022-10-22T04:25:14.484Z,16.17
2022-10-22T04:27:41.318Z,17.98
2022-10-22T04:30:08.352Z,18.48
2022-10-22T04:32:37.848Z,17.45
2022-10-22T04:35:04.467Z,17.67
2022-10-22T04:37:32.965Z,18.65
2022-10-22T04:39:59.684Z,18.40
2022-10-22T04:42:26.131Z,16.77
2022-10-22T04:44:52.548Z,18.13
2022-10-22T04:47:19.041Z,18.52
2022-10-22T04:49:45.478Z,18.52
2022-10-22T04:52:12.742Z,18.73
2022-10-22T04:54:39.227Z,19.13
2022-10-22T04:57:08.019Z,18.10
2022-10-22T04:59:34.551Z,19.42
2022-10-22T05:02:01.083Z,16.95
2022-10-22T05:04:27.543Z,18.60
2022-10-22T05:06:54.032Z,17.73
2022-10-22T05:09:21.147Z,18.20
2022-10-22T05:11:49.011Z,17.67
2022-10-22T05:14:17.338Z,17.90
2022-10-22T05:19:16.214Z,18.05
2022-10-22T05:21:42.674Z,18.15
2022-10-22T05:24:09.216Z,17.45
2022-10-22T05:26:35.629Z,16.27
2022-10-22T05:29:02.049Z,16.92
2022-10-22T05:31:29.072Z,18.35
2022-10-22T05:33:55.543Z,18.67
2022-10-22T05:36:24.130Z,18.35
2022-10-22T05:38:50.724Z,17.42
2022-10-22T05:41:18.307Z,17.80
2022-10-22T05:43:44.730Z,17.42
2022-10-22T05:46:12.381Z,15.57
2022-10-22T05:48:38.967Z,16.08
2022-10-22T05:51:06.656Z,16.63
2022-10-22T05:53:33.450Z,16.70
2022-10-22T05:56:04.190Z,16.35
2022-10-22T05:58:31.153Z,16.20
2022-10-22T06:01:04.382Z,14.80
2022-10-22T06:03:31.989Z,16.55
2022-10-22T06:06:01.882Z,15.13
2022-10-22T06:08:31.646Z,15.10
2022-10-22T06:10:58.201Z,14.85
2022-10-22T06:13:24.614Z,15.52
2022-10-22T06:15:53.517Z,14.93
2022-10-22T06:18:20.057Z,16.10
2022-10-22T06:20:47.729Z,16.27
2022-10-22T06:23:14.831Z,18.08
2022-10-22T06:25:41.600Z,17.25
2022-10-22T06:28:08.147Z,16.00
2022-10-22T06:30:34.771Z,16.20
2022-10-22T06:33:01.182Z,15.25
2022-10-22T06:35:27.605Z,15.85
2022-10-22T06:37:54.119Z,16.45
2022-10-22T06:40:20.740Z,14.43
2022-10-22T06:42:47.208Z,15.02
2022-10-22T06:45:13.747Z,14.77
2022-10-22T06:47:40.391Z,17.52
2022-10-22T06:50:07.404Z,15.82
2022-10-22T06:52:33.961Z,18.13
2022-10-22T06:55:00.574Z,17.13
2022-10-22T06:57:27.081Z,16.08
2022-10-22T06:59:56.574Z,14.90
2022-10-22T07:02:23.125Z,15.25
2022-10-22T07:04:49.591Z,17.65
2022-10-22T07:07:16.092Z,16.02
2022-10-22T07:09:45.487Z,16.33
2022-10-22T07:12:12.596Z,15.27
2022-10-22T07:14:39.015Z,16.65
2022-10-22T07:17:05.477Z,15.18
2022-10-22T07:19:31.917Z,17.48
2022-10-22T07:22:01.110Z,15.18
2022-10-22T07:24:27.610Z,15.27
2022-10-22T07:26:54.148Z,15.40
2022-10-22T07:29:20.642Z,16.23
2022-10-22T07:31:47.156Z,15.52
2022-10-22T07:34:13.712Z,16.00
2022-10-22T07:36:40.179Z,15.93
2022-10-22T07:39:06.920Z,15.85
2022-10-22T07:41:33.435Z,15.80
2022-10-22T07:44:00.097Z,14.68
2022-10-22T07:46:26.818Z,15.00
2022-10-22T07:48:53.387Z,13.85
2022-10-22T07:51:19.904Z,15.07
2022-10-22T07:53:46.376Z,14.10
2022-10-22T07:56:14.000Z,40.38
2022-10-22T07:58:41.677Z,19.45
2022-10-22T08:01:09.467Z,14.77
2022-10-22T08:03:36.167Z,19.13
2022-10-22T08:06:02.665Z,18.33
2022-10-22T08:08:30.941Z,20.08
2022-10-22T08:10:59.371Z,18.88
2022-10-22T08:13:26.454Z,20.60
2022-10-22T08:15:56.504Z,16.35
2022-10-22T08:18:24.538Z,17.67
2022-10-22T08:20:51.119Z,16.38
2022-10-22T08:23:17.576Z,14.80
2022-10-22T08:25:44.053Z,15.07
2022-10-22T08:28:10.689Z,14.38
2022-10-22T08:30:38.713Z,14.48
2022-10-22T08:33:05.835Z,15.77
2022-10-22T08:35:32.393Z,15.40
2022-10-22T08:37:58.829Z,14.90
2022-10-22T08:40:40.954Z,16.73
2022-10-22T08:43:14.471Z,14.40
2022-10-22T08:45:55.971Z,14.38
2022-10-22T08:48:41.688Z,15.48
2022-10-22T08:51:11.904Z,14.25
2022-10-22T08:54:04.355Z,15.75
2022-10-22T08:56:31.614Z,14.60
2022-10-22T08:59:05.163Z,14.45
2022-10-22T09:01:31.562Z,14.90
2022-10-22T09:04:01.145Z,14.85
2022-10-22T09:06:29.360Z,14.88
2022-10-22T09:08:57.668Z,12.82
2022-10-22T09:11:27.110Z,17.48
2022-10-22T09:13:55.088Z,14.40
2022-10-22T09:16:36.947Z,12.45
2022-10-22T09:19:18.221Z,11.43
2022-10-22T09:21:50.764Z,12.35
2022-10-22T09:24:23.712Z,13.52
2022-10-22T09:26:51.171Z,12.93
2022-10-22T09:29:19.760Z,12.85
2022-10-22T09:31:46.679Z,12.95
2022-10-22T09:34:19.618Z,13.57
2022-10-22T09:36:46.116Z,12.70
2022-10-22T09:39:23.349Z,11.00
2022-10-22T09:41:52.580Z,11.25
2022-10-22T09:44:19.795Z,12.32
2022-10-22T09:46:46.576Z,12.27
2022-10-22T09:49:17.991Z,11.20
2022-10-22T09:51:53.562Z,10.57
2022-10-22T09:54:40.330Z,14.13
2022-10-22T09:57:06.769Z,12.50
2022-10-22T09:59:36.865Z,11.55
2022-10-22T10:02:20.155Z,10.18
2022-10-22T10:05:02.297Z,11.10
2022-10-22T10:07:32.818Z,12.77
2022-10-22T10:09:59.514Z,11.68
2022-10-22T10:12:35.310Z,17.10
2022-10-22T10:15:01.840Z,18.70
2022-10-22T10:17:28.408Z,17.20
2022-10-22T10:20:24.339Z,16.88
2022-10-22T10:23:18.595Z,22.52
2022-10-22T10:26:05.857Z,26.20
2022-10-22T10:28:38.577Z,20.50
2022-10-22T10:31:11.967Z,21.10
2022-10-22T10:33:47.144Z,24.65
2022-10-22T10:36:26.810Z,18.38
2022-10-22T10:39:12.213Z,17.05
2022-10-22T10:41:59.015Z,17.73
2022-10-22T10:44:25.489Z,19.17
2022-10-22T10:47:07.295Z,17.27
2022-10-22T10:49:35.039Z,13.73
2022-10-22T10:52:01.502Z,19.05
2022-10-22T10:54:51.132Z,14.95
2022-10-22T10:57:20.837Z,13.60
2022-10-22T11:00:07.534Z,15.20
2022-10-22T11:02:43.167Z,15.40
2022-10-22T11:05:09.605Z,15.18
2022-10-22T11:07:42.630Z,15.13
2022-10-22T11:10:14.614Z,14.95
2022-10-22T11:12:44.624Z,15.40
2022-10-22T11:15:33.247Z,15.88
2022-10-22T11:18:02.418Z,12.60
2022-10-22T11:20:34.887Z,13.27
2022-10-22T11:23:19.379Z,13.77
2022-10-22T11:25:48.172Z,12.38
2022-10-22T11:28:17.631Z,13.85
2022-10-22T11:30:45.495Z,15.30
2022-10-22T11:33:16.636Z,12.45
2022-10-22T11:35:44.378Z,12.55
2022-10-22T11:38:14.069Z,13.80
2022-10-22T11:40:48.522Z,13.45
2022-10-22T11:43:33.419Z,15.35
2022-10-22T11:46:09.387Z,18.23
2022-10-22T11:48:37.143Z,17.42
2022-10-22T11:51:04.393Z,15.88
2022-10-22T11:53:32.316Z,16.98
2022-10-22T11:56:04.259Z,15.05
2022-10-22T11:58:33.719Z,23.65
2022-10-22T12:01:03.251Z,19.75
2022-10-22T12:03:32.731Z,18.75
2022-10-22T12:06:05.369Z,23.08
2022-10-22T12:08:32.774Z,14.98
2022-10-22T12:11:07.318Z,14.82
2022-10-22T12:13:52.795Z,13.07
2022-10-22T12:16:32.227Z,12.70
2022-10-22T12:19:14.261Z,13.23
2022-10-22T12:21:42.377Z,13.55
2022-10-22T12:24:13.012Z,12.23
2022-10-22T12:26:39.511Z,14.27
2022-10-22T12:29:14.146Z,14.20
2022-10-22T12:31:41.722Z,14.60
2022-10-22T12:34:13.154Z,14.13
2022-10-22T12:36:39.619Z,47.45
2022-10-22T12:39:16.715Z,21.00
2022-10-22T12:41:43.872Z,17.23
2022-10-22T12:44:11.806Z,15.60
2022-10-22T12:46:38.284Z,16.90
2022-10-22T12:49:06.922Z,16.40
2022-10-22T12:51:33.428Z,17.85
2022-10-22T12:54:07.174Z,18.50
2022-10-22T12:56:34.942Z,18.30
2022-10-22T12:59:21.685Z,16.35
2022-10-22T13:01:49.410Z,15.45
2022-10-22T13:04:21.098Z,14.98
2022-10-22T13:06:48.781Z,17.35
2022-10-22T13:09:27.453Z,14.77
2022-10-22T13:11:58.354Z,18.30
2022-10-22T13:14:24.779Z,17.38
2022-10-22T13:17:10.187Z,16.02
2022-10-22T13:19:42.177Z,18.05
2022-10-22T13:22:28.490Z,22.83
2022-10-22T13:27:46.535Z,15.82
2022-10-22T13:30:22.317Z,25.52
2022-10-22T13:32:50.139Z,16.90
2022-10-22T13:35:18.514Z,17.83
2022-10-22T13:37:45.077Z,16.40
2022-10-22T13:40:12.713Z,18.33
2022-10-22T13:42:40.213Z,15.05
2022-10-22T13:45:07.367Z,17.42
2022-10-22T13:47:34.035Z,17.02
2022-10-22T13:50:01.928Z,15.32
2022-10-22T13:52:31.573Z,17.70
2022-10-22T13:54:58.230Z,18.63
2022-10-22T13:57:24.719Z,17.95
2022-10-22T13:59:51.285Z,27.45
2022-10-22T14:02:18.812Z,30.95
2022-10-22T14:04:45.611Z,56.65
2022-10-22T14:07:15.867Z,21.95
2022-10-22T14:09:43.075Z,16.75
2022-10-22T14:12:13.414Z,18.27
2022-10-22T14:14:40.048Z,21.40
2022-10-22T14:17:09.082Z,20.05
2022-10-22T14:19:35.519Z,22.15
2022-10-22T14:22:02.318Z,19.50
2022-10-22T14:24:28.748Z,80.60
2022-10-22T14:26:55.354Z,80.20
2022-10-22T14:29:22.086Z,137.27
2022-10-22T14:31:48.522Z,42.60
2022-10-22T14:34:16.252Z,30.88
2022-10-22T14:36:46.713Z,100.68
2022-10-22T14:39:13.558Z,58.60
2022-10-22T14:41:40.996Z,27.30
2022-10-22T14:44:12.721Z,21.40
2022-10-22T14:46:40.393Z,21.88
2022-10-22T14:49:06.954Z,28.70
2022-10-22T14:51:33.486Z,24.38
2022-10-22T14:54:00.031Z,33.80
2022-10-22T14:56:26.577Z,36.70
2022-10-22T14:58:53.845Z,22.67
2022-10-22T15:01:20.355Z,18.90
2022-10-22T15:03:46.912Z,23.65
2022-10-22T15:06:13.588Z,22.70
2022-10-22T15:08:40.101Z,23.42
2022-10-22T15:11:07.868Z,23.23
2022-10-22T15:13:34.987Z,22.55
2022-10-22T15:16:01.779Z,21.95
2022-10-22T15:18:28.591Z,21.38
2022-10-22T15:21:03.404Z,24.92
2022-10-22T15:23:29.895Z,24.92
2022-10-22T15:25:56.620Z,23.85
2022-10-22T15:28:23.741Z,25.08
2022-10-22T15:30:56.532Z,26.40
2022-10-22T15:33:23.203Z,22.70
2022-10-22T15:35:49.877Z,23.92
2022-10-22T15:38:16.489Z,24.58
2022-10-22T15:40:43.162Z,41.10
2022-10-22T15:43:09.846Z,26.35
2022-10-22T15:45:36.718Z,26.90
2022-10-22T15:48:03.409Z,24.08
2022-10-22T15:50:29.964Z,26.63
2022-10-22T15:52:56.706Z,30.20
2022-10-22T15:55:23.437Z,26.33
2022-10-22T15:57:55.170Z,28.33
2022-10-22T16:00:23.017Z,27.50
2022-10-22T16:02:49.759Z,28.40
2022-10-22T16:05:16.351Z,28.25
2022-10-22T16:07:43.351Z,29.33
2022-10-22T16:10:12.905Z,27.02
2022-10-22T16:12:41.364Z,27.95
2022-10-22T16:15:09.137Z,26.35
2022-10-22T16:17:35.772Z,29.60
2022-10-22T16:20:02.415Z,27.17
2022-10-22T16:22:29.062Z,26.95
2022-10-22T16:24:55.684Z,28.58
2022-10-22T16:27:22.319Z,30.30
2022-10-22T16:29:49.119Z,30.15
2022-10-22T16:32:16.615Z,28.42
2022-10-22T16:34:43.262Z,29.88
2022-10-22T16:37:10.516Z,31.08
2022-10-22T16:39:37.514Z,32.38
2022-10-22T16:42:04.243Z,30.60
2022-10-22T16:44:30.844Z,32.08
2022-10-22T16:46:57.471Z,33.67
2022-10-22T16:49:24.157Z,32.05
2022-10-22T16:51:50.690Z,30.02
2022-10-22T16:54:20.554Z,30.52
2022-10-22T16:56:47.122Z,29.48
2022-10-22T16:59:13.745Z,29.73
2022-10-22T17:01:41.369Z,28.13
2022-10-22T17:04:08.449Z,35.42
2022-10-22T17:06:35.064Z,33.53
2022-10-22T17:09:01.705Z,32.42
2022-10-22T17:11:35.672Z,40.55
2022-10-22T17:14:04.036Z,31.33
2022-10-22T17:16:31.671Z,32.45
2022-10-22T17:18:58.526Z,32.75
2022-10-22T17:21:25.144Z,33.85
2022-10-22T17:23:55.803Z,32.47
2022-10-22T17:26:22.883Z,37.70
2022-10-22T17:28:49.776Z,33.35
2022-10-22T17:31:17.078Z,32.28
2022-10-22T17:33:43.602Z,31.77
2022-10-22T17:36:12.069Z,32.92
2022-10-22T17:38:45.716Z,33.10
2022-10-22T17:41:17.888Z,34.55
2022-10-22T17:46:31.940Z,36.85
2022-10-22T17:49:12.464Z,39.83
2022-10-22T17:51:39.467Z,34.30
2022-10-22T17:54:08.899Z,33.47
2022-10-22T17:56:37.412Z,36.03
2022-10-22T17:59:04.479Z,36.08
2022-10-22T18:01:32.033Z,38.35
2022-10-22T18:03:59.737Z,37.58
2022-10-22T18:06:26.490Z,35.45
2022-10-22T18:11:22.254Z,36.75
2022-10-22T18:13:50.066Z,39.70
2022-10-22T18:16:16.543Z,48.17
2022-10-22T18:18:45.021Z,38.35
2022-10-22T18:21:12.062Z,61.28
2022-10-22T18:23:38.533Z,40.00
2022-10-22T18:26:05.477Z,37.47
2022-10-22T18:28:32.025Z,41.42
2022-10-22T18:30:58.628Z,38.28
2022-10-22T18:33:25.472Z,37.70
2022-10-22T18:35:55.101Z,40.40
2022-10-22T18:38:22.031Z,36.88
2022-10-22T18:40:49.465Z,40.25
2022-10-22T18:43:16.724Z,43.00
2022-10-22T18:45:44.107Z,40.20
2022-10-22T18:48:11.019Z,38.95
2022-10-22T18:50:37.722Z,40.55
2022-10-22T18:53:04.466Z,39.00
2022-10-22T18:55:31.149Z,42.63
2022-10-22T18:57:57.640Z,40.88
2022-10-22T19:00:26.569Z,53.15
2022-10-22T19:02:54.171Z,43.28
2022-10-22T19:05:20.704Z,39.95
2022-10-22T19:07:47.212Z,41.17
2022-10-22T19:10:13.712Z,42.10
2022-10-22T19:12:40.263Z,42.65
2022-10-22T19:15:06.998Z,43.20
2022-10-22T19:17:34.452Z,50.90
2022-10-22T19:20:00.935Z,44.80
2022-10-22T19:22:27.464Z,45.45
2022-10-22T19:25:01.385Z,39.97
2022-10-22T19:27:27.869Z,40.60
2022-10-22T19:29:56.495Z,41.95
2022-10-22T19:32:24.429Z,52.60
2022-10-22T19:34:52.842Z,39.88
2022-10-22T19:37:19.274Z,35.70
2022-10-22T19:39:45.776Z,33.45
2022-10-22T19:42:15.162Z,36.92
2022-10-22T19:44:41.691Z,35.33
2022-10-22T19:47:12.015Z,37.42
2022-10-22T19:49:38.541Z,35.28
2022-10-22T19:52:05.250Z,31.23
2022-10-22T19:54:31.781Z,35.38
2022-10-22T19:56:58.307Z,29.20
2022-10-22T19:59:28.711Z,28.45
2022-10-22T20:01:57.864Z,26.73
2022-10-22T20:04:25.898Z,24.60
2022-10-22T20:06:52.437Z,26.42
2022-10-22T20:09:18.983Z,24.90
2022-10-22T20:11:45.847Z,25.75
2022-10-22T20:14:13.218Z,25.63
2022-10-22T20:16:39.741Z,25.33
2022-10-22T20:19:07.799Z,27.98
2022-10-22T20:21:35.061Z,25.17
2022-10-22T20:24:01.919Z,25.20
2022-10-22T20:26:28.556Z,23.80
2022-10-22T20:28:55.603Z,24.13
2022-10-22T20:31:22.937Z,23.23
2022-10-22T20:33:50.714Z,22.83
2022-10-22T20:36:18.211Z,21.73
2022-10-22T20:38:46.739Z,25.60
2022-10-22T20:41:14.423Z,21.02
2022-10-22T20:43:43.166Z,23.08
2022-10-22T20:46:13.644Z,23.48
2022-10-22T20:48:40.123Z,21.67
2022-10-22T20:51:06.607Z,23.25
2022-10-22T20:53:34.197Z,18.67
2022-10-22T20:56:00.731Z,19.02
2022-10-22T20:58:27.628Z,19.08
2022-10-22T21:00:54.752Z,18.50
2022-10-22T21:03:21.324Z,16.88
2022-10-22T21:05:47.834Z,17.48
2022-10-22T21:08:17.508Z,16.40
2022-10-22T21:10:49.703Z,16.98
2022-10-22T21:13:19.857Z,16.48
2022-10-22T21:15:46.350Z,17.17
2022-10-22T21:18:12.856Z,17.42
2022-10-22T21:20:39.569Z,14.43
2022-10-22T21:23:06.536Z,14.55
2022-10-22T21:25:33.161Z,13.43
2022-10-22T21:27:59.666Z,12.55
2022-10-22T21:30:26.191Z,12.05
2022-10-22T21:32:52.617Z,13.02
2022-10-22T21:35:19.098Z,12.82
2022-10-22T21:37:48.377Z,13.65
2022-10-22T21:40:14.868Z,12.88
2022-10-22T21:42:41.286Z,13.25
2022-10-22T21:45:12.176Z,12.40
2022-10-22T21:47:41.139Z,12.77
2022-10-22T21:50:10.373Z,12.77
2022-10-22T21:52:36.919Z,10.82
2022-10-22T21:55:03.735Z,10.93
2022-10-22T21:57:30.227Z,11.18
2022-10-22T21:59:56.831Z,9.85
2022-10-22T22:02:24.076Z,10.32
2022-10-22T22:04:54.829Z,10.57
2022-10-22T22:07:22.150Z,10.57
2022-10-22T22:09:51.929Z,10.85
2022-10-22T22:12:18.747Z,11.57
2022-10-22T22:14:45.315Z,11.55
2022-10-22T22:17:11.764Z,10.95
2022-10-22T22:19:38.935Z,11.57
2022-10-22T22:22:05.441Z,11.82
2022-10-22T22:24:31.942Z,10.82
2022-10-22T22:26:58.408Z,12.40
2022-10-22T22:29:24.869Z,11.68
2022-10-22T22:31:51.425Z,12.02
2022-10-22T22:34:18.028Z,12.48
2022-10-22T22:36:45.779Z,12.60
2022-10-22T22:39:13.576Z,12.38
2022-10-22T22:41:40.404Z,13.32
2022-10-22T22:44:06.869Z,13.45
2022-10-22T22:46:33.771Z,12.30
2022-10-22T22:49:00.335Z,13.35
2022-10-22T22:51:26.882Z,12.23
2022-10-22T22:53:53.433Z,12.45
2022-10-22T22:56:21.250Z,12.85
2022-10-22T22:58:47.848Z,12.85
2022-10-22T23:01:23.513Z,13.40
2022-10-22T23:03:57.015Z,13.35
2022-10-22T23:06:25.415Z,13.98
2022-10-22T23:08:52.573Z,14.93
2022-10-22T23:11:19.626Z,14.07
2022-10-22T23:13:46.183Z,13.23
2022-10-22T23:16:17.335Z,12.88
2022-10-22T23:18:44.794Z,12.60
2022-10-22T23:21:13.203Z,12.13
2022-10-22T23:23:42.395Z,11.82
2022-10-22T23:26:10.222Z,12.77
2022-10-22T23:28:36.685Z,12.50
2022-10-22T23:31:05.227Z,12.05
2022-10-22T23:33:31.652Z,13.88
2022-10-22T23:36:00.414Z,12.13
2022-10-22T23:38:27.032Z,12.70
2022-10-22T23:40:54.335Z,11.90
2022-10-22T23:43:21.266Z,12.73
2022-10-22T23:45:47.689Z,13.25
2022-10-22T23:48:14.124Z,13.60
2022-10-22T23:50:40.599Z,13.23
2022-10-22T23:53:07.424Z,13.95
2022-10-22T23:55:36.330Z,14.40
2022-10-22T23:58:05.605Z,13.80
